Time;durP1;ratioP1;P1;durP2;ratioP2;P2;SDS_P1;SDS_P2;PMS_P1;PMS_P2;Temp;Humidity;BMP_temperature;BMP_pressure;BME280_temperature;BME280_humidity;BME280_pressure;Samples;Min_cycle;Max_cycle;Signal;HPM_P1;HPM_P2
2022/06/15 00:01:49;;;;;;;6.88;3.90;;;11.90;99.90;;;;;;4991360;28;20034;-58
2022/06/15 00:04:15;;;;;;;5.75;3.63;;;12.00;99.90;;;;;;4993285;28;20026;-58
2022/06/15 00:06:42;;;;;;;4.97;3.10;;;11.90;99.90;;;;;;4991093;28;20443;-58
2022/06/15 00:09:09;;;;;;;8.77;3.55;;;11.90;99.90;;;;;;4992463;28;20498;-58
2022/06/15 00:11:39;;;;;;;5.30;3.80;;;11.80;99.90;;;;;;4989939;28;20402;-57
2022/06/15 00:14:26;;;;;;;9.80;4.18;;;11.80;99.90;;;;;;4993098;28;20057;-57
2022/06/15 00:16:52;;;;;;;6.03;3.88;;;11.80;99.90;;;;;;4987017;28;20030;-58
2022/06/15 00:19:18;;;;;;;6.32;4.35;;;11.80;99.90;;;;;;4992684;28;20042;-57
2022/06/15 00:21:44;;;;;;;8.52;3.90;;;11.80;99.90;;;;;;4990399;28;20022;-58
2022/06/15 00:24:11;;;;;;;6.38;4.30;;;11.80;99.90;;;;;;4991732;28;20041;-58
2022/06/15 00:26:38;;;;;;;7.80;5.00;;;11.80;99.90;;;;;;4990430;28;20042;-58
2022/06/15 00:29:04;;;;;;;7.03;4.50;;;11.80;99.90;;;;;;4991518;28;20034;-58
2022/06/15 00:31:29;;;;;;;10.50;4.68;;;11.90;99.90;;;;;;4991166;28;20026;-58
2022/06/15 00:33:55;;;;;;;9.60;5.00;;;11.90;99.90;;;;;;4990658;28;20065;-58
2022/06/15 00:36:21;;;;;;;9.88;4.75;;;11.80;99.90;;;;;;4992519;28;20479;-58
2022/06/15 00:38:49;;;;;;;7.78;4.20;;;11.80;99.90;;;;;;4990456;28;20431;-58
2022/06/15 00:41:21;;;;;;;9.38;4.55;;;11.80;99.90;;;;;;4991332;28;20026;-58
2022/06/15 00:43:49;;;;;;;5.90;4.78;;;11.70;99.90;;;;;;4988138;28;20057;-59
2022/06/15 00:46:24;;;;;;;7.22;4.68;;;11.80;99.90;;;;;;4992261;28;20039;-58
2022/06/15 00:48:56;;;;;;;8.55;5.78;;;11.80;99.90;;;;;;4984031;28;20459;-58
2022/06/15 00:51:24;;;;;;;7.95;4.68;;;11.90;99.90;;;;;;4990527;28;20030;-58
2022/06/15 00:53:50;;;;;;;9.15;4.97;;;11.90;99.90;;;;;;4988670;28;20036;-59
2022/06/15 00:56:16;;;;;;;6.38;4.63;;;12.00;99.90;;;;;;4991686;28;20470;-58
2022/06/15 00:58:46;;;;;;;10.23;5.32;;;12.00;99.90;;;;;;4990559;28;20033;-58
2022/06/15 01:01:12;;;;;;;8.25;4.75;;;11.90;99.90;;;;;;4991736;28;20463;-58
2022/06/15 01:03:37;;;;;;;8.77;4.72;;;11.90;99.90;;;;;;4989654;28;20023;-58
2022/06/15 01:06:19;;;;;;;8.18;4.82;;;11.90;99.90;;;;;;4991975;28;20105;-58
2022/06/15 01:09:23;;;;;;;7.28;4.63;;;11.90;99.90;;;;;;4980367;28;20487;-58
2022/06/15 01:12:01;;;;;;;8.98;4.03;;;12.00;99.90;;;;;;4985603;28;20073;-58
2022/06/15 01:14:46;;;;;;;8.85;4.53;;;11.90;99.90;;;;;;4991940;28;20035;-59
2022/06/15 01:17:38;;;;;;;5.82;4.15;;;11.90;99.90;;;;;;4989395;28;20040;-58
2022/06/15 01:20:29;;;;;;;8.88;4.40;;;11.90;99.90;;;;;;4987457;28;20041;-59
2022/06/15 01:23:14;;;;;;;9.52;4.78;;;12.00;99.90;;;;;;4980921;28;20039;-58
2022/06/15 01:25:51;;;;;;;7.40;3.75;;;11.90;99.90;;;;;;4989481;28;20043;-58
2022/06/15 01:28:35;;;;;;;8.68;4.60;;;11.80;99.90;;;;;;4989998;28;20031;-58
2022/06/15 01:31:34;;;;;;;12.55;5.38;;;11.70;99.90;;;;;;4983334;28;20842;-58
2022/06/15 01:34:22;;;;;;;10.77;4.35;;;11.60;99.90;;;;;;4988009;28;20046;-57
2022/06/15 01:37:02;;;;;;;9.10;5.00;;;11.50;99.90;;;;;;4988736;28;20026;-58
2022/06/15 01:39:30;;;;;;;6.75;4.60;;;11.50;99.90;;;;;;4990559;28;20026;-58
2022/06/15 01:42:15;;;;;;;7.40;4.63;;;11.40;99.90;;;;;;4988910;28;20038;-58
2022/06/15 01:45:01;;;;;;;10.02;4.35;;;11.20;99.90;;;;;;4988705;28;20397;-57
2022/06/15 01:47:30;;;;;;;9.20;4.95;;;11.10;99.90;;;;;;4985848;28;20069;-58
2022/06/15 01:50:19;;;;;;;6.60;4.47;;;11.10;99.90;;;;;;4987776;28;20062;-59
2022/06/15 01:53:00;;;;;;;7.88;4.70;;;11.10;99.90;;;;;;4986116;28;20041;-58
2022/06/15 01:55:50;;;;;;;7.68;4.53;;;11.10;99.90;;;;;;4986427;28;20118;-58
2022/06/15 01:58:18;;;;;;;6.53;4.07;;;11.00;99.90;;;;;;4983160;28;20030;-59
2022/06/15 02:00:53;;;;;;;6.82;4.25;;;11.10;99.90;;;;;;4988324;28;20026;-57
2022/06/15 02:03:55;;;;;;;6.20;4.47;;;11.00;99.90;;;;;;4987686;28;20038;-58
2022/06/15 02:07:02;;;;;;;5.75;4.28;;;11.00;99.90;;;;;;4930434;29;20043;-57
2022/06/15 02:10:07;;;;;;;7.85;4.85;;;10.90;99.90;;;;;;4930403;29;20504;-58
2022/06/15 02:12:51;;;;;;;5.28;4.43;;;10.90;99.90;;;;;;4926371;29;20039;-59
2022/06/15 02:15:20;;;;;;;9.02;5.22;;;10.90;99.90;;;;;;4930486;29;20572;-58
2022/06/15 02:17:48;;;;;;;7.50;4.85;;;10.90;99.90;;;;;;4928865;29;20071;-58
2022/06/15 02:20:18;;;;;;;5.53;4.32;;;10.80;99.90;;;;;;4929308;29;20059;-58
2022/06/15 02:22:46;;;;;;;7.50;4.78;;;10.80;99.90;;;;;;4927993;29;20036;-58
2022/06/15 02:25:18;;;;;;;8.38;4.80;;;10.80;99.90;;;;;;4930499;29;20555;-58
2022/06/15 02:27:46;;;;;;;6.97;4.25;;;10.70;99.90;;;;;;4927520;29;20039;-58
2022/06/15 02:30:22;;;;;;;7.40;4.55;;;10.60;99.90;;;;;;4929862;29;20067;-58
2022/06/15 02:32:49;;;;;;;10.70;4.78;;;10.50;99.90;;;;;;4928858;29;20032;-58
2022/06/15 02:35:17;;;;;;;7.07;4.22;;;10.60;99.90;;;;;;4930334;29;20039;-58
2022/06/15 02:37:44;;;;;;;7.20;4.70;;;10.60;99.90;;;;;;4927780;29;20135;-58
2022/06/15 02:40:14;;;;;;;5.40;4.55;;;10.60;99.90;;;;;;4957167;28;20157;-58
2022/06/15 02:42:45;;;;;;;8.00;4.25;;;10.60;99.90;;;;;;4987620;28;20058;-58
2022/06/15 02:45:40;;;;;;;6.05;3.97;;;10.60;99.90;;;;;;4988297;28;20121;-57
2022/06/15 02:48:08;;;;;;;9.05;4.40;;;10.70;99.90;;;;;;4978221;28;20027;-58
2022/06/15 02:50:52;;;;;;;7.32;4.38;;;10.70;99.90;;;;;;4989848;28;20128;-58
2022/06/15 02:53:22;;;;;;;5.95;3.67;;;10.70;99.90;;;;;;4984493;28;20041;-58
2022/06/15 02:55:50;;;;;;;10.43;4.38;;;10.70;99.90;;;;;;4986577;28;20026;-58
2022/06/15 02:58:24;;;;;;;6.85;4.20;;;10.70;99.90;;;;;;4989201;28;20032;-58
2022/06/15 03:00:50;;;;;;;7.78;4.40;;;10.60;99.90;;;;;;4986420;28;20053;-57
2022/06/15 03:03:17;;;;;;;11.40;5.00;;;10.60;99.90;;;;;;4988646;28;20069;-57
2022/06/15 03:05:47;;;;;;;7.82;4.57;;;10.50;99.90;;;;;;4986313;28;20049;-58
2022/06/15 03:08:13;;;;;;;9.88;6.80;;;10.50;99.90;;;;;;4992429;28;20030;-57
2022/06/15 03:10:39;;;;;;;8.43;5.03;;;10.50;99.90;;;;;;4992207;28;20026;-58
2022/06/15 03:13:05;;;;;;;10.02;5.38;;;10.50;99.90;;;;;;4990099;28;20022;-59
2022/06/15 03:15:31;;;;;;;13.43;5.97;;;10.50;99.90;;;;;;4993717;28;20041;-58
2022/06/15 03:17:56;;;;;;;7.50;4.57;;;10.50;99.90;;;;;;4992569;28;20031;-58
2022/06/15 03:20:22;;;;;;;9.05;4.50;;;10.50;99.90;;;;;;4992939;28;20084;-57
2022/06/15 03:22:48;;;;;;;5.63;4.55;;;10.60;99.90;;;;;;4990841;28;20030;-57
2022/06/15 03:25:15;;;;;;;8.32;4.93;;;10.60;99.90;;;;;;4993422;28;20118;-58
2022/06/15 03:27:40;;;;;;;6.53;4.90;;;10.50;99.90;;;;;;4990266;28;20030;-58
2022/06/15 03:30:07;;;;;;;9.23;5.43;;;10.40;99.90;;;;;;4993730;28;20034;-58
2022/06/15 03:32:33;;;;;;;7.97;5.20;;;10.40;99.90;;;;;;4992952;28;20506;-58
2022/06/15 03:34:59;;;;;;;11.48;5.75;;;10.40;99.90;;;;;;4990707;28;20030;-58
2022/06/15 03:37:25;;;;;;;8.13;4.90;;;10.40;99.90;;;;;;4993662;28;20032;-58
2022/06/15 03:39:54;;;;;;;7.50;4.32;;;10.50;99.90;;;;;;4992144;28;20394;-58
2022/06/15 03:42:25;;;;;;;7.43;4.65;;;10.50;99.90;;;;;;5008230;23;20046;-54
2022/06/15 03:44:53;;;;;;;12.63;4.87;;;10.60;99.90;;;;;;5009642;28;20037;-54
2022/06/15 03:47:20;;;;;;;12.60;5.03;;;10.50;99.90;;;;;;5011268;28;20115;-56
2022/06/15 03:49:51;;;;;;;7.20;5.38;;;10.50;99.90;;;;;;5011183;28;20441;-56
2022/06/15 03:52:23;;;;;;;10.75;6.03;;;10.50;99.90;;;;;;5012606;28;20030;-56
2022/06/15 03:54:49;;;;;;;9.35;5.68;;;10.50;99.90;;;;;;5009655;28;20562;-56
2022/06/15 03:57:17;;;;;;;9.13;5.47;;;10.60;99.90;;;;;;5011731;28;20130;-55
2022/06/15 03:59:44;;;;;;;6.97;4.88;;;10.60;99.90;;;;;;5011105;28;20033;-55
2022/06/15 04:02:10;;;;;;;8.35;5.25;;;10.50;99.90;;;;;;5013038;28;20038;-55
2022/06/15 04:04:36;;;;;;;11.68;5.95;;;10.40;99.90;;;;;;5010384;28;20026;-55
2022/06/15 04:07:03;;;;;;;9.30;5.75;;;10.40;99.90;;;;;;5012798;28;20085;-57
2022/06/15 04:09:29;;;;;;;10.75;5.18;;;10.50;99.90;;;;;;5012016;28;20072;-56
2022/06/15 04:11:59;;;;;;;9.25;5.50;;;10.50;99.90;;;;;;5010262;28;20476;-56
2022/06/15 04:14:26;;;;;;;6.55;4.50;;;10.60;99.90;;;;;;5010355;28;20034;-56
2022/06/15 04:16:55;;;;;;;8.30;5.10;;;10.60;99.90;;;;;;5001562;28;20026;-55
2022/06/15 04:19:26;;;;;;;7.97;4.65;;;10.60;99.90;;;;;;5011009;28;20030;-56
2022/06/15 04:21:52;;;;;;;8.18;5.28;;;10.50;99.90;;;;;;5001576;28;20038;-56
2022/06/15 04:24:19;;;;;;;7.07;4.97;;;10.50;99.90;;;;;;5011194;28;20044;-57
2022/06/15 04:26:47;;;;;;;10.27;5.55;;;10.40;99.90;;;;;;5010037;28;20053;-55
2022/06/15 04:29:14;;;;;;;6.95;5.28;;;10.50;99.90;;;;;;5011711;28;20037;-55
2022/06/15 04:31:39;;;;;;;6.80;4.97;;;10.50;99.90;;;;;;5009293;28;20025;-55
2022/06/15 04:34:07;;;;;;;10.57;4.88;;;10.50;99.90;;;;;;5012404;28;20026;-54
2022/06/15 04:36:33;;;;;;;8.60;4.40;;;10.60;99.90;;;;;;5012080;28;20033;-55
2022/06/15 04:38:59;;;;;;;6.93;4.45;;;10.50;99.90;;;;;;5010277;28;20033;-56
2022/06/15 04:41:25;;;;;;;6.13;4.70;;;10.40;99.90;;;;;;5011496;28;20022;-54
2022/06/15 04:43:51;;;;;;;7.13;4.75;;;10.50;99.90;;;;;;5008665;28;20046;-55
2022/06/15 04:46:17;;;;;;;7.35;4.43;;;10.50;99.90;;;;;;5011287;28;20116;-56
2022/06/15 04:48:43;;;;;;;7.82;4.78;;;10.60;99.90;;;;;;5010152;28;20030;-54
2022/06/15 04:51:22;;;;;;;11.93;4.90;;;10.60;99.90;;;;;;5011957;28;20422;-54
2022/06/15 04:53:49;;;;;;;11.77;5.35;;;10.70;99.90;;;;;;5007359;28;20025;-56
2022/06/15 04:56:16;;;;;;;8.02;5.70;;;10.80;99.90;;;;;;5011461;28;20033;-57
2022/06/15 04:58:43;;;;;;;8.13;4.88;;;10.80;99.90;;;;;;5009953;28;20425;-55
2022/06/15 05:01:13;;;;;;;10.60;5.68;;;10.80;99.90;;;;;;5002500;28;20024;-57
2022/06/15 05:03:39;;;;;;;9.93;5.72;;;10.90;99.90;;;;;;5009170;28;20079;-57
2022/06/15 05:06:24;;;;;;;12.32;5.68;;;10.90;99.90;;;;;;5011532;28;20045;-55
2022/06/15 05:08:50;;;;;;;14.38;5.68;;;11.10;99.90;;;;;;5009029;28;20025;-55
2022/06/15 05:11:16;;;;;;;8.35;5.28;;;11.20;99.90;;;;;;5008288;28;20041;-55
2022/06/15 05:13:41;;;;;;;11.45;6.07;;;11.30;99.90;;;;;;5009125;28;20048;-56
2022/06/15 05:16:07;;;;;;;10.73;6.47;;;11.30;99.90;;;;;;5007919;28;20072;-56
2022/06/15 05:18:33;;;;;;;10.50;6.60;;;11.30;99.90;;;;;;5011097;28;20056;-55
2022/06/15 05:21:00;;;;;;;17.15;7.00;;;11.40;99.90;;;;;;5008000;28;20033;-55
2022/06/15 05:23:26;;;;;;;13.15;6.55;;;11.60;99.90;;;;;;5010893;28;20030;-55
2022/06/15 05:25:52;;;;;;;10.25;6.32;;;11.60;99.90;;;;;;5004810;28;20065;-55
2022/06/15 05:28:18;;;;;;;17.02;7.65;;;11.70;99.90;;;;;;5011220;28;20390;-55
2022/06/15 05:30:44;;;;;;;12.98;7.00;;;11.70;99.90;;;;;;5008803;28;20508;-56
2022/06/15 05:33:10;;;;;;;13.77;6.60;;;11.80;99.90;;;;;;5012552;28;20018;-56
2022/06/15 05:35:36;;;;;;;10.40;6.70;;;11.90;99.90;;;;;;5008308;28;20470;-57
2022/06/15 05:38:02;;;;;;;13.82;6.55;;;12.10;99.90;;;;;;5011065;28;20037;-55
2022/06/15 05:40:28;;;;;;;14.18;7.70;;;12.20;99.90;;;;;;5010913;28;20053;-56
2022/06/15 05:42:54;;;;;;;8.45;6.65;;;12.20;99.90;;;;;;4998211;28;20097;-54
2022/06/15 05:45:19;;;;;;;13.55;7.18;;;12.20;99.90;;;;;;5010649;28;20053;-55
2022/06/15 05:47:45;;;;;;;15.05;8.07;;;12.40;99.90;;;;;;5002356;28;20049;-55
2022/06/15 05:50:13;;;;;;;13.57;7.90;;;12.50;99.90;;;;;;5009993;28;20026;-56
2022/06/15 05:52:39;;;;;;;16.50;9.45;;;12.60;99.90;;;;;;5000134;28;20441;-57
2022/06/15 05:55:05;;;;;;;13.18;8.27;;;12.70;99.90;;;;;;5004791;28;20057;-55
2022/06/15 05:57:31;;;;;;;14.23;9.00;;;12.70;99.90;;;;;;5003571;28;20026;-55
2022/06/15 05:59:57;;;;;;;11.68;8.85;;;12.80;99.90;;;;;;5005656;28;20044;-55
2022/06/15 06:02:26;;;;;;;20.30;9.38;;;12.90;99.90;;;;;;5005605;28;20033;-55
2022/06/15 06:04:52;;;;;;;18.85;9.80;;;12.90;99.90;;;;;;5005559;28;20451;-55
2022/06/15 06:07:19;;;;;;;15.82;9.63;;;13.00;99.90;;;;;;5006157;28;20109;-56
2022/06/15 06:09:45;;;;;;;16.88;10.45;;;13.00;99.90;;;;;;5000353;28;20053;-55
2022/06/15 06:12:12;;;;;;;17.02;10.80;;;13.10;99.90;;;;;;5004929;28;20429;-54
2022/06/15 06:14:38;;;;;;;17.55;10.05;;;13.20;99.90;;;;;;5008034;28;20022;-55
2022/06/15 06:17:08;;;;;;;14.43;10.18;;;13.40;99.90;;;;;;5010646;28;20355;-58
2022/06/15 06:19:34;;;;;;;17.40;9.65;;;13.50;99.90;;;;;;5010022;28;20367;-57
2022/06/15 06:22:00;;;;;;;12.27;8.27;;;13.60;99.90;;;;;;5008454;28;20053;-56
2022/06/15 06:24:26;;;;;;;16.02;9.70;;;13.80;99.90;;;;;;5006340;28;20031;-56
2022/06/15 06:27:02;;;;;;;15.55;8.52;;;14.00;99.90;;;;;;4998072;28;20398;-56
2022/06/15 06:29:29;;;;;;;16.17;7.80;;;14.20;99.90;;;;;;5009380;28;20026;-58
2022/06/15 06:31:58;;;;;;;16.67;7.28;;;14.40;99.90;;;;;;4997157;28;20030;-55
2022/06/15 06:34:24;;;;;;;10.63;7.75;;;14.50;99.90;;;;;;5002527;28;20039;-58
2022/06/15 06:36:49;;;;;;;11.40;8.52;;;14.60;99.90;;;;;;5006293;28;20512;-59
2022/06/15 06:39:19;;;;;;;10.20;7.22;;;14.70;99.90;;;;;;5006427;28;20065;-57
2022/06/15 06:41:45;;;;;;;11.80;7.13;;;14.90;99.90;;;;;;5004932;28;20034;-57
2022/06/15 06:44:12;;;;;;;11.50;6.32;;;15.10;99.90;;;;;;5000852;28;20038;-57
2022/06/15 06:46:42;;;;;;;14.10;6.80;;;15.20;99.90;;;;;;5006244;28;20037;-56
2022/06/15 06:49:09;;;;;;;12.90;7.28;;;15.40;99.90;;;;;;5001842;28;20029;-57
2022/06/15 06:51:36;;;;;;;14.38;6.90;;;15.40;99.90;;;;;;5007275;28;20036;-59
2022/06/15 06:54:04;;;;;;;19.00;7.10;;;15.40;99.90;;;;;;5007631;28;20034;-58
2022/06/15 06:56:30;;;;;;;9.73;6.20;;;15.40;99.90;;;;;;5005974;28;20033;-57
2022/06/15 06:58:56;;;;;;;13.10;6.72;;;15.50;99.90;;;;;;5003674;28;20030;-57
2022/06/15 07:01:22;;;;;;;12.52;6.35;;;15.50;99.90;;;;;;5006558;28;20444;-58
2022/06/15 07:03:48;;;;;;;14.90;7.80;;;15.50;99.90;;;;;;5024633;28;20477;-57
2022/06/15 07:06:14;;;;;;;12.05;6.10;;;15.50;99.90;;;;;;5006553;28;20033;-57
2022/06/15 07:08:40;;;;;;;20.33;9.35;;;15.50;99.90;;;;;;5011055;28;20022;-57
2022/06/15 07:11:10;;;;;;;9.40;5.60;;;15.60;99.90;;;;;;5002834;28;20111;-57
2022/06/15 07:13:37;;;;;;;15.45;5.95;;;15.60;99.90;;;;;;4999586;28;20121;-57
2022/06/15 07:16:07;;;;;;;7.50;5.75;;;15.70;99.90;;;;;;5002087;28;21520;-58
2022/06/15 07:18:33;;;;;;;12.13;6.22;;;15.90;99.90;;;;;;5001786;28;20022;-55
2022/06/15 07:21:07;;;;;;;11.85;6.68;;;16.10;99.90;;;;;;5000428;28;20105;-55
2022/06/15 07:23:34;;;;;;;12.75;5.90;;;16.20;99.90;;;;;;5004397;28;20057;-55
2022/06/15 07:26:05;;;;;;;16.63;6.80;;;16.30;99.90;;;;;;5000863;28;20041;-56
2022/06/15 07:28:31;;;;;;;7.50;5.35;;;16.40;99.90;;;;;;5004174;28;20049;-56
2022/06/15 07:30:57;;;;;;;6.75;5.03;;;16.50;99.90;;;;;;5006218;28;20073;-57
2022/06/15 07:33:23;;;;;;;14.32;6.22;;;16.50;99.90;;;;;;5007649;28;20110;-57
2022/06/15 07:35:49;;;;;;;11.73;6.05;;;16.50;99.90;;;;;;5000936;28;20371;-55
2022/06/15 07:38:15;;;;;;;10.07;5.78;;;16.60;99.90;;;;;;5005669;28;20045;-57
2022/06/15 07:40:41;;;;;;;12.60;5.70;;;16.70;99.90;;;;;;5000657;28;20034;-58
2022/06/15 07:43:06;;;;;;;10.07;5.38;;;16.70;99.90;;;;;;5003500;28;20057;-58
2022/06/15 07:45:33;;;;;;;11.60;5.57;;;16.80;99.90;;;;;;5001152;28;20117;-57
2022/06/15 07:50:43;;;;;;;15.52;4.78;;;17.00;99.90;;;;;;5003518;28;20033;-56
2022/06/15 07:53:13;;;;;;;13.70;5.07;;;17.20;99.90;;;;;;5008174;28;20030;-63
2022/06/15 07:55:42;;;;;;;16.13;5.45;;;17.10;99.90;;;;;;5009216;28;20040;-58
2022/06/15 07:58:10;;;;;;;9.20;5.38;;;17.10;99.90;;;;;;5009314;28;20022;-58
2022/06/15 08:00:38;;;;;;;14.50;4.75;;;17.20;99.90;;;;;;5009489;28;20533;-59
2022/06/15 08:03:04;;;;;;;7.30;4.28;;;17.40;99.90;;;;;;5009527;28;20071;-59
2022/06/15 08:05:35;;;;;;;8.82;3.90;;;17.60;99.90;;;;;;5010803;28;20045;-59
2022/06/15 08:08:03;;;;;;;9.43;4.00;;;17.80;99.90;;;;;;5010961;28;20037;-57
2022/06/15 08:10:29;;;;;;;14.00;5.40;;;18.00;99.90;;;;;;5010572;28;20041;-58
2022/06/15 08:12:55;;;;;;;9.23;4.45;;;18.10;99.90;;;;;;5007755;28;20040;-58
2022/06/15 08:15:21;;;;;;;10.50;4.30;;;18.10;99.90;;;;;;5009645;28;20030;-58
2022/06/15 08:17:51;;;;;;;9.75;3.80;;;18.20;99.90;;;;;;5005311;28;20032;-58
2022/06/15 08:20:22;;;;;;;8.57;3.72;;;18.30;99.90;;;;;;5009602;28;20030;-57
2022/06/15 08:22:52;;;;;;;10.93;3.43;;;18.40;99.90;;;;;;5005506;28;20032;-57
2022/06/15 08:25:23;;;;;;;7.38;3.35;;;18.50;99.90;;;;;;5006144;28;20128;-57
2022/06/15 08:27:49;;;;;;;7.85;4.00;;;18.60;99.90;;;;;;5001363;28;20374;-57
2022/06/15 08:30:16;;;;;;;5.95;3.00;;;18.80;99.90;;;;;;5009367;28;20383;-57
2022/06/15 08:32:42;;;;;;;9.60;4.50;;;18.90;99.90;;;;;;5004041;28;20033;-57
2022/06/15 08:35:09;;;;;;;22.40;6.45;;;19.00;99.90;;;;;;5009842;28;20104;-57
2022/06/15 08:37:36;;;;;;;7.65;2.72;;;19.30;99.90;;;;;;5009848;28;20084;-58
2022/06/15 08:40:02;;;;;;;8.10;3.08;;;19.20;99.90;;;;;;5010569;28;20420;-58
2022/06/15 08:42:58;;;;;;;10.07;2.92;;;19.30;99.90;;;;;;5008176;28;20049;-58
2022/06/15 08:45:34;;;;;;;14.95;4.32;;;19.40;99.90;;;;;;5008659;28;20034;-58
2022/06/15 08:48:20;;;;;;;10.35;2.90;;;19.60;99.90;;;;;;5001069;28;20046;-57
2022/06/15 08:50:50;;;;;;;7.78;3.15;;;19.90;99.90;;;;;;5004881;28;20037;-58
2022/06/15 08:53:47;;;;;;;7.93;2.85;;;20.00;99.90;;;;;;5008164;28;20030;-58
2022/06/15 08:56:21;;;;;;;9.20;3.90;;;20.10;99.90;;;;;;5002174;28;20034;-58
2022/06/15 08:59:04;;;;;;;7.90;3.20;;;20.40;99.90;;;;;;5004433;28;20649;-59
2022/06/15 09:01:55;;;;;;;15.07;4.63;;;20.60;99.90;;;;;;5010229;28;20053;-58
2022/06/15 09:04:59;;;;;;;8.40;3.63;;;20.70;99.90;;;;;;4999695;28;20390;-57
2022/06/15 09:07:49;;;;;;;8.77;3.33;;;20.80;99.90;;;;;;5000439;28;20094;-59
2022/06/15 09:10:40;;;;;;;10.50;2.78;;;21.00;99.90;;;;;;5004379;28;20123;-57
2022/06/15 09:13:12;;;;;;;6.47;3.60;;;21.20;99.90;;;;;;5004714;28;20030;-58
2022/06/15 09:16:03;;;;;;;8.60;2.60;;;21.40;99.90;;;;;;4999035;28;20054;-58
2022/06/15 09:18:40;;;;;;;7.57;2.90;;;21.50;99.90;;;;;;5002124;28;20023;-58
2022/06/15 09:21:12;;;;;;;6.90;2.58;;;21.40;99.90;;;;;;5005552;28;20037;-58
2022/06/15 09:24:10;;;;;;;10.38;2.67;;;21.50;99.90;;;;;;5003283;28;20045;-59
2022/06/15 09:26:49;;;;;;;9.25;2.65;;;21.50;99.90;;;;;;4993612;28;20049;-57
2022/06/15 09:29:27;;;;;;;7.15;2.60;;;21.50;99.90;;;;;;5004594;28;20544;-58
2022/06/15 09:32:00;;;;;;;6.65;2.78;;;21.60;99.90;;;;;;5003016;28;20050;-58
2022/06/15 09:34:36;;;;;;;8.55;3.00;;;21.60;99.90;;;;;;5001811;28;20056;-59
2022/06/15 09:37:08;;;;;;;12.15;2.65;;;21.80;99.90;;;;;;5004270;28;20036;-58
2022/06/15 09:39:36;;;;;;;14.15;2.97;;;21.90;99.90;;;;;;5001127;28;20478;-57
2022/06/15 09:42:33;;;;;;;3.70;2.03;;;22.10;99.90;;;;;;4996327;28;20038;-58
2022/06/15 09:45:24;;;;;;;8.38;2.55;;;22.10;99.90;;;;;;4997680;28;20091;-58
2022/06/15 09:48:23;;;;;;;9.98;2.67;;;22.20;99.90;;;;;;5004700;28;20037;-60
2022/06/15 09:51:16;;;;;;;3.58;2.17;;;22.30;99.90;;;;;;4998549;28;20051;-58
2022/06/15 09:53:49;;;;;;;6.25;2.40;;;22.30;99.90;;;;;;5004199;28;20038;-58
2022/06/15 09:56:19;;;;;;;8.88;2.95;;;22.20;99.90;;;;;;5002598;28;20037;-58
2022/06/15 09:58:54;;;;;;;6.65;2.63;;;22.50;99.90;;;;;;4992201;28;20092;-57
2022/06/15 10:01:25;;;;;;;8.65;1.88;;;22.60;99.90;;;;;;5005464;28;20041;-57
2022/06/15 10:03:53;;;;;;;4.80;2.10;;;22.70;99.90;;;;;;5003123;28;20077;-59
2022/06/15 10:06:46;;;;;;;7.78;1.80;;;22.90;96.00;;;;;;5005312;28;20129;-57
2022/06/15 10:09:15;;;;;;;5.18;2.08;;;23.10;98.60;;;;;;5002332;28;20030;-57
2022/06/15 10:12:56;;;;;;;5.70;2.10;;;23.00;92.40;;;;;;4994390;28;20109;-56
2022/06/15 10:15:05;;;;;;;6.32;2.72;;;23.00;92.50;;;;;;5001971;28;20457;-58
2022/06/15 10:17:35;;;;;;;5.05;2.30;;;23.10;93.30;;;;;;5003229;28;20044;-57
2022/06/15 10:20:01;;;;;;;4.90;1.60;;;23.20;91.10;;;;;;4997510;28;20030;-57
2022/06/15 10:22:30;;;;;;;7.32;1.40;;;23.00;90.70;;;;;;5005478;28;20030;-57
2022/06/15 10:24:59;;;;;;;4.75;1.35;;;23.30;91.50;;;;;;5001949;28;20103;-58
2022/06/15 10:27:36;;;;;;;4.78;1.48;;;23.40;91.00;;;;;;5004248;28;20040;-57
2022/06/15 10:30:16;;;;;;;5.05;1.90;;;23.50;90.60;;;;;;5003823;28;20022;-58
2022/06/15 10:33:13;;;;;;;5.30;2.53;;;23.70;88.20;;;;;;4998297;28;20038;-58
2022/06/15 10:35:39;;;;;;;3.55;1.48;;;23.60;80.00;;;;;;5002358;28;20043;-58
2022/06/15 10:38:11;;;;;;;7.70;2.25;;;23.60;83.50;;;;;;4999645;28;20482;-58
2022/06/15 10:40:39;;;;;;;4.13;1.70;;;23.80;85.00;;;;;;4996043;28;20073;-57
2022/06/15 10:43:15;;;;;;;5.90;1.23;;;24.10;85.90;;;;;;4995724;28;20445;-57
2022/06/15 10:46:02;;;;;;;3.10;1.60;;;24.10;75.90;;;;;;5001750;28;20482;-58
2022/06/15 10:48:42;;;;;;;4.05;1.50;;;24.20;78.60;;;;;;5001031;28;20048;-58
2022/06/15 10:51:29;;;;;;;6.00;1.70;;;24.40;76.70;;;;;;5000008;28;20018;-58
2022/06/15 10:54:13;;;;;;;4.40;1.42;;;24.50;74.20;;;;;;5000802;28;20087;-59
2022/06/15 11:02:25;;;;;;;5.50;1.65;;;24.90;72.10;;;;;;5005840;28;20033;-58
2022/06/15 11:04:58;;;;;;;3.38;1.60;;;24.80;69.20;;;;;;5000631;28;20029;-57
2022/06/15 11:07:59;;;;;;;5.78;1.60;;;24.70;67.40;;;;;;5000972;28;20518;-58
2022/06/15 11:11:07;;;;;;;4.05;1.40;;;25.00;69.60;;;;;;4997878;28;20062;-58
2022/06/15 11:13:36;;;;;;;3.88;1.48;;;25.50;65.10;;;;;;4999041;28;20489;-57
2022/06/15 11:19:11;;;;;;;4.70;1.63;;;26.00;63.20;;;;;;5001588;28;20489;-57
2022/06/15 11:22:03;;;;;;;4.03;1.85;;;26.00;57.60;;;;;;5003260;28;20034;-59
2022/06/15 11:24:46;;;;;;;5.38;1.70;;;26.10;58.20;;;;;;5003899;28;20084;-58
2022/06/15 11:27:24;;;;;;;2.63;1.40;;;26.00;58.10;;;;;;4999081;28;20042;-58
2022/06/15 11:30:13;;;;;;;4.65;1.48;;;26.20;58.40;;;;;;4998081;28;20100;-58
2022/06/15 11:33:02;;;;;;;6.88;1.88;;;26.20;58.60;;;;;;5008915;28;20034;-58
2022/06/15 11:35:37;;;;;;;7.32;1.77;;;26.40;55.30;;;;;;5006414;28;20529;-58
2022/06/15 11:38:20;;;;;;;5.32;2.25;;;26.50;57.70;;;;;;5004143;28;20018;-58
2022/06/15 11:40:52;;;;;;;3.72;1.90;;;26.80;55.10;;;;;;5002540;28;20030;-57
2022/06/15 11:43:26;;;;;;;4.35;1.85;;;27.20;53.60;;;;;;5006625;28;20034;-56
2022/06/15 11:46:28;;;;;;;4.18;1.50;;;27.40;53.70;;;;;;5006491;28;20033;-57
2022/06/15 11:49:11;;;;;;;3.08;1.85;;;27.60;53.30;;;;;;5007968;28;20034;-58
2022/06/15 11:51:51;;;;;;;5.85;2.05;;;27.90;52.90;;;;;;5003875;28;20130;-57
2022/06/15 11:55:13;;;;;;;7.47;2.42;;;28.10;51.90;;;;;;5006878;28;20056;-57
2022/06/15 11:58:18;;;;;;;5.68;1.48;;;28.20;52.00;;;;;;4980621;28;20023;-58
2022/06/15 12:00:58;;;;;;;4.63;1.50;;;28.40;50.50;;;;;;4979206;28;20486;-57
2022/06/15 12:03:52;;;;;;;5.35;1.42;;;28.30;50.80;;;;;;4979332;28;20038;-58
2022/06/15 12:06:24;;;;;;;6.47;1.90;;;28.30;50.10;;;;;;4986161;28;20050;-57
2022/06/15 12:09:10;;;;;;;3.25;1.75;;;28.80;48.70;;;;;;4980628;28;20038;-57
2022/06/15 12:14:55;;;;;;;5.57;2.00;;;29.30;46.80;;;;;;4983573;28;20054;-58
2022/06/15 12:17:24;;;;;;;4.28;2.00;;;29.50;47.20;;;;;;4979274;28;20387;-58
2022/06/15 12:20:05;;;;;;;6.72;2.42;;;29.80;44.90;;;;;;4981246;28;20232;-58
2022/06/15 12:22:40;;;;;;;5.32;2.30;;;29.70;43.60;;;;;;4979272;28;20030;-57
2022/06/15 12:25:21;;;;;;;6.70;1.90;;;29.70;44.70;;;;;;4981590;28;20038;-58
2022/06/15 12:27:49;;;;;;;5.40;1.70;;;30.10;43.50;;;;;;4982518;28;20054;-56
2022/06/15 12:30:47;;;;;;;5.40;1.98;;;30.00;41.90;;;;;;4975337;28;20105;-58
2022/06/15 12:33:38;;;;;;;6.65;1.70;;;29.90;43.10;;;;;;5002044;28;20056;-58
2022/06/15 12:36:12;;;;;;;4.53;1.83;;;30.30;43.40;;;;;;5003924;28;20116;-57
2022/06/15 12:38:58;;;;;;;7.88;2.08;;;30.00;43.00;;;;;;5001492;28;20018;-57
2022/06/15 12:44:22;;;;;;;5.03;1.70;;;29.40;43.20;;;;;;5004561;28;20069;-57
2022/06/15 12:46:51;;;;;;;7.57;2.05;;;29.70;41.90;;;;;;5004769;28;20034;-58
2022/06/15 12:49:17;;;;;;;5.88;1.80;;;29.90;41.40;;;;;;5001538;28;20027;-58
2022/06/15 12:51:49;;;;;;;6.18;1.80;;;29.90;40.50;;;;;;4997147;28;20107;-58
2022/06/15 12:54:34;;;;;;;3.95;1.70;;;29.90;40.40;;;;;;5002964;28;20033;-58
2022/06/15 12:57:09;;;;;;;4.70;1.70;;;30.10;40.20;;;;;;5003967;28;20034;-57
2022/06/15 12:59:49;;;;;;;6.07;1.60;;;30.70;38.60;;;;;;5004588;28;20045;-57
2022/06/15 13:02:52;;;;;;;9.05;2.35;;;30.80;39.20;;;;;;5005501;28;20385;-59
2022/06/15 13:05:31;;;;;;;3.58;1.80;;;30.80;38.10;;;;;;5005591;28;20034;-58
2022/06/15 13:08:25;;;;;;;12.38;2.22;;;30.90;39.00;;;;;;5005620;28;20119;-57
2022/06/15 13:10:53;;;;;;;9.40;2.20;;;30.90;39.30;;;;;;5002478;28;20040;-57
2022/06/15 13:13:50;;;;;;;4.43;2.13;;;31.10;38.60;;;;;;5005759;28;20435;-57
2022/06/15 13:16:34;;;;;;;3.60;1.80;;;31.00;37.00;;;;;;5001275;28;20037;-58
2022/06/15 13:19:03;;;;;;;5.50;1.77;;;31.20;37.10;;;;;;5000969;28;20413;-58
2022/06/15 13:21:53;;;;;;;6.35;1.63;;;31.40;36.50;;;;;;5005143;28;20026;-58
2022/06/15 13:24:20;;;;;;;7.28;1.95;;;31.50;37.00;;;;;;5002978;28;21143;-58
2022/06/15 13:27:17;;;;;;;2.10;1.45;;;31.80;37.40;;;;;;5002266;28;20117;-57
2022/06/15 13:30:06;;;;;;;8.63;1.90;;;31.60;37.30;;;;;;4999911;28;20466;-57
2022/06/15 13:32:57;;;;;;;6.00;1.80;;;31.70;36.80;;;;;;5005533;28;20036;-57
2022/06/15 13:35:42;;;;;;;4.97;1.52;;;31.20;36.70;;;;;;4992450;28;20140;-57